sensor_id;sensor_type;location;lat;lon;timestamp;temperature;humidity
43541;DHT22;29549;40.386;-3.710;2022-07-29T00:09:12;30.00;29.30
43541;DHT22;29549;40.386;-3.710;2022-07-29T00:19:13;29.70;29.70
43541;DHT22;29549;40.386;-3.710;2022-07-29T00:29:15;29.60;29.80
43541;DHT22;29549;40.386;-3.710;2022-07-29T00:39:17;29.60;29.60
43541;DHT22;29549;40.386;-3.710;2022-07-29T00:49:18;29.40;29.90
43541;DHT22;29549;40.386;-3.710;2022-07-29T00:59:20;29.30;30.00
43541;DHT22;29549;40.386;-3.710;2022-07-29T01:09:22;29.10;30.20
43541;DHT22;29549;40.386;-3.710;2022-07-29T01:19:56;29.10;30.40
43541;DHT22;29549;40.386;-3.710;2022-07-29T01:30:01;29.30;30.20
43541;DHT22;29549;40.386;-3.710;2022-07-29T01:40:08;29.20;30.20
43541;DHT22;29549;40.386;-3.710;2022-07-29T01:50:16;29.10;30.40
43541;DHT22;29549;40.386;-3.710;2022-07-29T02:00:21;28.90;30.80
43541;DHT22;29549;40.386;-3.710;2022-07-29T02:10:29;28.90;30.80
43541;DHT22;29549;40.386;-3.710;2022-07-29T02:20:39;28.80;31.30
43541;DHT22;29549;40.386;-3.710;2022-07-29T02:30:43;28.60;31.60
43541;DHT22;29549;40.386;-3.710;2022-07-29T02:40:45;28.40;33.30
43541;DHT22;29549;40.386;-3.710;2022-07-29T02:50:51;27.90;33.70
43541;DHT22;29549;40.386;-3.710;2022-07-29T03:00:57;27.60;34.30
43541;DHT22;29549;40.386;-3.710;2022-07-29T03:11:01;27.30;34.40
43541;DHT22;29549;40.386;-3.710;2022-07-29T03:21:04;27.20;34.60
43541;DHT22;29549;40.386;-3.710;2022-07-29T03:31:06;27.10;35.00
43541;DHT22;29549;40.386;-3.710;2022-07-29T03:41:10;27.10;35.30
43541;DHT22;29549;40.386;-3.710;2022-07-29T03:51:13;27.20;36.30
43541;DHT22;29549;40.386;-3.710;2022-07-29T04:01:16;27.30;37.50
43541;DHT22;29549;40.386;-3.710;2022-07-29T04:11:20;27.30;36.30
43541;DHT22;29549;40.386;-3.710;2022-07-29T04:21:21;27.10;36.30
43541;DHT22;29549;40.386;-3.710;2022-07-29T04:31:23;26.80;37.10
43541;DHT22;29549;40.386;-3.710;2022-07-29T04:41:25;26.50;37.60
43541;DHT22;29549;40.386;-3.710;2022-07-29T04:51:27;26.30;38.00
43541;DHT22;29549;40.386;-3.710;2022-07-29T05:01:29;26.20;38.20
43541;DHT22;29549;40.386;-3.710;2022-07-29T05:11:31;26.20;38.90
43541;DHT22;29549;40.386;-3.710;2022-07-29T05:21:32;26.10;38.50
43541;DHT22;29549;40.386;-3.710;2022-07-29T05:31:34;26.10;38.70
43541;DHT22;29549;40.386;-3.710;2022-07-29T05:41:35;26.10;38.80
43541;DHT22;29549;40.386;-3.710;2022-07-29T05:51:37;26.20;39.30
43541;DHT22;29549;40.386;-3.710;2022-07-29T06:01:41;26.30;39.00
43541;DHT22;29549;40.386;-3.710;2022-07-29T06:11:43;25.90;37.80
43541;DHT22;29549;40.386;-3.710;2022-07-29T06:21:45;25.70;38.40
43541;DHT22;29549;40.386;-3.710;2022-07-29T06:31:46;25.70;38.50
43541;DHT22;29549;40.386;-3.710;2022-07-29T06:41:49;26.00;38.70
43541;DHT22;29549;40.386;-3.710;2022-07-29T06:51:52;26.10;38.90
43541;DHT22;29549;40.386;-3.710;2022-07-29T07:01:54;26.80;38.10
43541;DHT22;29549;40.386;-3.710;2022-07-29T07:11:55;27.60;37.70
43541;DHT22;29549;40.386;-3.710;2022-07-29T07:21:57;28.20;37.00
43541;DHT22;29549;40.386;-3.710;2022-07-29T07:31:58;28.70;36.50
43541;DHT22;29549;40.386;-3.710;2022-07-29T07:42:00;29.20;36.60
43541;DHT22;29549;40.386;-3.710;2022-07-29T07:52:03;29.60;35.40
43541;DHT22;29549;40.386;-3.710;2022-07-29T08:02:05;29.90;35.30
43541;DHT22;29549;40.386;-3.710;2022-07-29T08:12:07;30.30;34.60
43541;DHT22;29549;40.386;-3.710;2022-07-29T08:22:09;30.60;34.30
43541;DHT22;29549;40.386;-3.710;2022-07-29T08:32:11;30.80;33.80
43541;DHT22;29549;40.386;-3.710;2022-07-29T08:42:13;31.10;33.70
43541;DHT22;29549;40.386;-3.710;2022-07-29T08:52:16;31.10;33.50
43541;DHT22;29549;40.386;-3.710;2022-07-29T09:02:22;31.30;33.40
43541;DHT22;29549;40.386;-3.710;2022-07-29T09:12:23;31.70;32.80
43541;DHT22;29549;40.386;-3.710;2022-07-29T09:22:29;31.80;32.50
43541;DHT22;29549;40.386;-3.710;2022-07-29T09:32:33;32.10;31.70
43541;DHT22;29549;40.386;-3.710;2022-07-29T09:42:55;32.20;31.40
43541;DHT22;29549;40.386;-3.710;2022-07-29T09:52:59;32.30;30.30
43541;DHT22;29549;40.386;-3.710;2022-07-29T10:03:00;32.40;30.60
43541;DHT22;29549;40.386;-3.710;2022-07-29T10:13:13;32.60;29.80
43541;DHT22;29549;40.386;-3.710;2022-07-29T10:23:15;32.90;29.30
43541;DHT22;29549;40.386;-3.710;2022-07-29T10:33:35;33.10;27.60
43541;DHT22;29549;40.386;-3.710;2022-07-29T10:43:43;33.40;27.40
43541;DHT22;29549;40.386;-3.710;2022-07-29T10:53:51;33.40;27.00
43541;DHT22;29549;40.386;-3.710;2022-07-29T11:03:53;33.50;27.60
43541;DHT22;29549;40.386;-3.710;2022-07-29T11:13:56;33.60;26.20
43541;DHT22;29549;40.386;-3.710;2022-07-29T11:24:33;33.80;25.10
43541;DHT22;29549;40.386;-3.710;2022-07-29T11:34:34;34.00;24.20
43541;DHT22;29549;40.386;-3.710;2022-07-29T11:55:02;34.30;22.70
43541;DHT22;29549;40.386;-3.710;2022-07-29T12:05:04;34.00;23.80
43541;DHT22;29549;40.386;-3.710;2022-07-29T12:15:17;34.10;22.80
43541;DHT22;29549;40.386;-3.710;2022-07-29T12:25:23;34.60;22.00
43541;DHT22;29549;40.386;-3.710;2022-07-29T12:35:25;34.80;21.80
43541;DHT22;29549;40.386;-3.710;2022-07-29T12:45:31;34.90;22.50
43541;DHT22;29549;40.386;-3.710;2022-07-29T12:55:44;35.10;21.70
43541;DHT22;29549;40.386;-3.710;2022-07-29T13:05:49;35.00;22.00
43541;DHT22;29549;40.386;-3.710;2022-07-29T13:16:06;35.30;21.20
43541;DHT22;29549;40.386;-3.710;2022-07-29T13:26:10;35.20;21.00
43541;DHT22;29549;40.386;-3.710;2022-07-29T13:36:13;35.40;21.20
43541;DHT22;29549;40.386;-3.710;2022-07-29T13:46:14;35.60;20.60
43541;DHT22;29549;40.386;-3.710;2022-07-29T13:56:17;35.60;19.70
43541;DHT22;29549;40.386;-3.710;2022-07-29T14:06:18;35.60;19.20
43541;DHT22;29549;40.386;-3.710;2022-07-29T14:16:20;35.70;19.40
43541;DHT22;29549;40.386;-3.710;2022-07-29T14:26:22;35.60;19.00
43541;DHT22;29549;40.386;-3.710;2022-07-29T14:36:23;35.90;19.20
43541;DHT22;29549;40.386;-3.710;2022-07-29T14:46:25;35.90;18.80
43541;DHT22;29549;40.386;-3.710;2022-07-29T14:56:27;36.10;18.40
43541;DHT22;29549;40.386;-3.710;2022-07-29T15:06:31;36.00;18.70
43541;DHT22;29549;40.386;-3.710;2022-07-29T15:16:36;36.10;17.60
43541;DHT22;29549;40.386;-3.710;2022-07-29T15:26:38;36.10;17.70
43541;DHT22;29549;40.386;-3.710;2022-07-29T15:36:39;36.10;17.40
43541;DHT22;29549;40.386;-3.710;2022-07-29T15:46:41;36.10;15.30
43541;DHT22;29549;40.386;-3.710;2022-07-29T15:57:02;36.10;17.80
43541;DHT22;29549;40.386;-3.710;2022-07-29T16:07:04;36.10;17.70
43541;DHT22;29549;40.386;-3.710;2022-07-29T16:17:05;35.50;16.20
43541;DHT22;29549;40.386;-3.710;2022-07-29T16:27:07;35.70;16.20
43541;DHT22;29549;40.386;-3.710;2022-07-29T16:37:09;35.50;15.40
43541;DHT22;29549;40.386;-3.710;2022-07-29T16:47:10;35.60;15.90
43541;DHT22;29549;40.386;-3.710;2022-07-29T16:57:12;35.50;16.00
43541;DHT22;29549;40.386;-3.710;2022-07-29T17:07:13;35.60;15.90
43541;DHT22;29549;40.386;-3.710;2022-07-29T17:17:16;35.50;16.30
43541;DHT22;29549;40.386;-3.710;2022-07-29T17:27:18;35.50;15.80
43541;DHT22;29549;40.386;-3.710;2022-07-29T17:37:20;35.60;15.70
43541;DHT22;29549;40.386;-3.710;2022-07-29T17:47:22;35.30;16.70
43541;DHT22;29549;40.386;-3.710;2022-07-29T17:57:23;35.30;15.80
43541;DHT22;29549;40.386;-3.710;2022-07-29T18:07:25;35.20;15.80
43541;DHT22;29549;40.386;-3.710;2022-07-29T18:17:27;35.20;16.10
43541;DHT22;29549;40.386;-3.710;2022-07-29T18:27:28;35.00;16.70
43541;DHT22;29549;40.386;-3.710;2022-07-29T18:37:30;35.00;17.10
43541;DHT22;29549;40.386;-3.710;2022-07-29T18:47:31;35.10;16.20
43541;DHT22;29549;40.386;-3.710;2022-07-29T18:57:33;35.10;16.60
43541;DHT22;29549;40.386;-3.710;2022-07-29T19:07:35;34.90;16.50
43541;DHT22;29549;40.386;-3.710;2022-07-29T19:17:36;34.80;17.00
43541;DHT22;29549;40.386;-3.710;2022-07-29T19:27:38;34.60;17.20
43541;DHT22;29549;40.386;-3.710;2022-07-29T19:37:41;34.40;17.60
43541;DHT22;29549;40.386;-3.710;2022-07-29T19:47:42;34.10;18.20
43541;DHT22;29549;40.386;-3.710;2022-07-29T19:57:44;34.00;18.40
43541;DHT22;29549;40.386;-3.710;2022-07-29T20:07:47;33.80;19.00
43541;DHT22;29549;40.386;-3.710;2022-07-29T20:17:48;33.60;19.30
43541;DHT22;29549;40.386;-3.710;2022-07-29T20:27:50;33.50;19.50
43541;DHT22;29549;40.386;-3.710;2022-07-29T20:37:54;33.40;19.70
43541;DHT22;29549;40.386;-3.710;2022-07-29T20:47:56;33.30;19.80
43541;DHT22;29549;40.386;-3.710;2022-07-29T20:57:58;33.20;20.00
43541;DHT22;29549;40.386;-3.710;2022-07-29T21:07:59;33.10;20.20
43541;DHT22;29549;40.386;-3.710;2022-07-29T21:18:01;33.00;20.90
43541;DHT22;29549;40.386;-3.710;2022-07-29T21:28:05;32.90;21.40
43541;DHT22;29549;40.386;-3.710;2022-07-29T21:38:25;32.80;22.00
43541;DHT22;29549;40.386;-3.710;2022-07-29T21:48:27;32.50;22.90
43541;DHT22;29549;40.386;-3.710;2022-07-29T21:58:29;32.10;23.30
43541;DHT22;29549;40.386;-3.710;2022-07-29T22:08:30;31.90;24.00
43541;DHT22;29549;40.386;-3.710;2022-07-29T22:18:32;31.70;29.70
43541;DHT22;29549;40.386;-3.710;2022-07-29T22:28:33;31.30;31.80
43541;DHT22;29549;40.386;-3.710;2022-07-29T22:38:35;30.70;33.90
43541;DHT22;29549;40.386;-3.710;2022-07-29T22:48:36;30.30;35.00
43541;DHT22;29549;40.386;-3.710;2022-07-29T22:58:38;30.00;36.00
43541;DHT22;29549;40.386;-3.710;2022-07-29T23:08:39;29.60;36.80
43541;DHT22;29549;40.386;-3.710;2022-07-29T23:18:41;29.50;37.20
43541;DHT22;29549;40.386;-3.710;2022-07-29T23:28:44;29.20;37.80
43541;DHT22;29549;40.386;-3.710;2022-07-29T23:38:46;28.90;38.40
43541;DHT22;29549;40.386;-3.710;2022-07-29T23:48:48;28.60;38.90
43541;DHT22;29549;40.386;-3.710;2022-07-29T23:58:49;28.40;39.40
